Time;durP1;ratioP1;P1;durP2;ratioP2;P2;SDS_P1;SDS_P2;PMS_P1;PMS_P2;Temp;Humidity;BMP_temperature;BMP_pressure;BME280_temperature;BME280_humidity;BME280_pressure;Samples;Min_cycle;Max_cycle;Signal;HPM_P1;HPM_P2
2020/12/30 00:00:20;;;;;;;0.20;0.10;;;;;;;3.86;100.00;98449.78;4993915;28;20457;-54
2020/12/30 00:02:46;;;;;;;0.20;0.10;;;;;;;3.64;100.00;98458.34;4993857;28;20898;-54
2020/12/30 00:05:13;;;;;;;0.20;0.10;;;;;;;3.53;100.00;98456.03;4993949;28;20488;-54
2020/12/30 00:07:39;;;;;;;0.30;0.10;;;;;;;3.47;100.00;98453.63;4993704;28;20978;-54
2020/12/30 00:10:09;;;;;;;0.20;0.10;;;;;;;3.49;100.00;98455.28;4984100;28;20450;-54
2020/12/30 00:12:36;;;;;;;0.20;0.10;;;;;;;3.42;100.00;98463.38;4993630;28;21082;-54
2020/12/30 00:15:04;;;;;;;0.20;0.10;;;;;;;3.46;100.00;98465.03;4993691;28;20453;-54
2020/12/30 00:17:31;;;;;;;0.20;0.10;;;;;;;3.38;100.00;98456.50;4993651;28;20538;-54
2020/12/30 00:19:57;;;;;;;0.20;0.10;;;;;;;3.44;100.00;98466.84;4989075;28;20977;-54
2020/12/30 00:22:23;;;;;;;0.20;0.10;;;;;;;3.32;100.00;98468.06;4979497;28;20500;-54
2020/12/30 00:24:49;;;;;;;0.20;0.20;;;;;;;3.31;100.00;98468.09;4993438;28;20457;-55
2020/12/30 00:27:16;;;;;;;0.20;0.10;;;;;;;3.36;100.00;98464.44;4993380;28;20982;-54
2020/12/30 00:29:42;;;;;;;0.20;0.10;;;;;;;3.36;100.00;98464.44;4993158;28;20449;-54
2020/12/30 00:32:10;;;;;;;0.20;0.10;;;;;;;3.36;100.00;98463.56;4993247;28;20453;-54
2020/12/30 00:34:45;;;;;;;0.20;0.10;;;;;;;3.39;100.00;98459.06;4987796;28;20461;-55
2020/12/30 00:37:12;;;;;;;0.20;0.10;;;;;;;3.39;100.00;98461.69;4993361;28;20844;-54
2020/12/30 00:39:39;;;;;;;0.20;0.10;;;;;;;3.38;100.00;98459.13;4993125;28;20939;-54
2020/12/30 00:42:05;;;;;;;0.20;0.10;;;;;;;3.47;100.00;98461.50;4993452;28;20516;-54
2020/12/30 00:44:31;;;;;;;0.20;0.20;;;;;;;3.38;100.00;98456.50;4993434;28;20457;-54
2020/12/30 00:46:58;;;;;;;0.20;0.10;;;;;;;3.42;100.00;98455.50;4993268;28;20970;-54
2020/12/30 00:49:25;;;;;;;0.20;0.10;;;;;;;3.38;100.00;98461.75;4993102;28;20457;-54
2020/12/30 00:51:56;;;;;;;0.20;0.10;;;;;;;3.32;100.00;98461.94;4993155;28;20504;-55
2020/12/30 00:54:23;;;;;;;0.20;0.10;;;;;;;3.28;100.00;98463.78;4991166;28;20464;-55
2020/12/30 00:56:50;;;;;;;0.20;0.10;;;;;;;3.35;100.00;98467.09;4993315;28;20473;-55
2020/12/30 00:59:18;;;;;;;0.20;0.10;;;;;;;3.27;100.00;98468.16;4993136;28;20878;-54
2020/12/30 01:01:50;;;;;;;0.20;0.10;;;;;;;3.27;100.00;98468.16;4982584;28;20480;-54
2020/12/30 01:04:19;;;;;;;0.20;0.10;;;;;;;3.13;100.00;98474.72;4993060;28;20465;-54
2020/12/30 01:06:52;;;;;;;0.20;0.10;;;;;;;2.99;100.00;98472.47;4992819;28;20492;-54
2020/12/30 01:09:20;;;;;;;0.63;0.63;;;;;;;3.03;100.00;98475.91;4993016;28;20461;-54
2020/12/30 01:11:47;;;;;;;0.20;0.10;;;;;;;2.97;100.00;98480.38;4993090;28;20494;-54
2020/12/30 01:14:13;;;;;;;0.20;0.10;;;;;;;3.03;100.00;98481.16;4993195;28;20481;-54
2020/12/30 01:16:39;;;;;;;0.20;0.10;;;;;;;3.06;100.00;98471.41;5005407;23;20571;-53
2020/12/30 01:19:06;;;;;;;0.20;0.20;;;;;;;3.13;100.00;98486.06;4992831;28;20449;-53
2020/12/30 01:21:42;;;;;;;0.20;0.10;;;;;;;3.29;100.00;98489.16;5005791;28;20502;-54
2020/12/30 01:24:09;;;;;;;0.20;0.10;;;;;;;3.39;100.00;98487.09;4988698;28;20448;-54
2020/12/30 01:26:36;;;;;;;0.20;0.10;;;;;;;3.36;100.00;98489.81;4992829;28;21056;-54
2020/12/30 01:29:04;;;;;;;0.20;0.20;;;;;;;3.47;100.00;98480.72;4993027;28;20464;-54
2020/12/30 01:31:31;;;;;;;0.20;0.10;;;;;;;3.51;100.00;98484.13;4992885;28;20457;-54
2020/12/30 01:33:58;;;;;;;0.20;0.10;;;;;;;3.46;100.00;98481.66;4993144;28;20445;-54
2020/12/30 01:36:25;;;;;;;0.20;0.10;;;;;;;3.52;100.00;98491.97;4992881;28;20481;-54
2020/12/30 01:38:53;;;;;;;0.20;0.10;;;;;;;3.58;100.00;98495.31;4986122;28;20528;-54
2020/12/30 01:41:20;;;;;;;0.20;0.10;;;;;;;3.68;100.00;98486.25;4993093;28;20461;-54
2020/12/30 01:43:59;;;;;;;0.20;0.10;;;;;;;3.62;100.00;98497.81;4996551;28;20547;-53
2020/12/30 01:46:43;;;;;;;0.20;0.10;;;;;;;3.61;100.00;98501.34;4996426;28;20470;-53
2020/12/30 01:49:14;;;;;;;0.20;0.10;;;;;;;3.62;100.00;98496.94;4996781;28;20989;-53
2020/12/30 01:51:42;;;;;;;0.30;0.20;;;;;;;3.71;100.00;98499.31;4995288;28;20445;-53
2020/12/30 01:54:11;;;;;;;0.20;0.10;;;;;;;3.74;100.00;98501.84;4996192;28;20453;-53
2020/12/30 01:56:38;;;;;;;0.20;0.10;;;;;;;3.72;100.00;98498.41;4996218;28;20465;-53
2020/12/30 01:59:07;;;;;;;0.20;0.10;;;;;;;3.82;100.00;98500.69;4996355;28;20445;-53
2020/12/30 02:01:36;;;;;;;0.20;0.10;;;;;;;3.88;100.00;98506.69;4996475;28;20499;-53
2020/12/30 02:04:04;;;;;;;0.20;0.20;;;;;;;3.83;100.00;98510.28;4996315;28;20511;-53
2020/12/30 02:06:31;;;;;;;0.20;0.10;;;;;;;3.71;100.00;98501.94;4996177;28;20477;-53
2020/12/30 02:08:57;;;;;;;0.20;0.10;;;;;;;3.80;100.00;98499.88;4995917;28;20839;-53
2020/12/30 02:11:25;;;;;;;0.20;0.10;;;;;;;3.86;100.00;98502.34;4996123;28;20771;-53
2020/12/30 02:14:04;;;;;;;0.30;0.10;;;;;;;3.81;100.00;98487.59;4996174;28;20451;-53
2020/12/30 02:16:32;;;;;;;1.13;1.13;;;;;;;3.86;100.00;98499.72;4996042;28;20826;-53
2020/12/30 02:18:59;;;;;;;0.20;0.10;;;;;;;3.88;100.00;98502.28;4996029;28;20508;-53
2020/12/30 02:21:26;;;;;;;0.20;0.10;;;;;;;3.94;100.00;98498.59;5007625;28;20475;-53
2020/12/30 02:23:54;;;;;;;0.20;0.10;;;;;;;3.92;100.00;98501.28;4996815;28;20504;-53
2020/12/30 02:26:21;;;;;;;0.20;0.10;;;;;;;3.97;100.00;98503.75;4990792;28;20474;-53
2020/12/30 02:28:47;;;;;;;0.20;0.10;;;;;;;3.92;100.00;98505.66;4994789;28;20895;-53
2020/12/30 02:31:13;;;;;;;0.20;0.10;;;;;;;3.92;100.00;98497.78;4995932;28;20464;-53
2020/12/30 02:33:39;;;;;;;0.20;0.10;;;;;;;3.96;100.00;98502.03;4995595;28;20507;-53
2020/12/30 02:36:06;;;;;;;0.20;0.10;;;;;;;4.07;100.00;98503.41;4995449;28;20484;-53
2020/12/30 02:38:32;;;;;;;0.20;0.10;;;;;;;4.02;100.00;98499.22;4995381;28;20457;-54
2020/12/30 02:40:59;;;;;;;0.20;0.10;;;;;;;4.01;100.00;98505.41;4995487;28;20465;-53
2020/12/30 02:43:25;;;;;;;0.30;0.20;;;;;;;4.07;100.00;98511.31;4995476;28;20500;-53
2020/12/30 02:45:51;;;;;;;0.20;0.10;;;;;;;4.05;100.00;98512.28;4995535;28;20462;-54
2020/12/30 02:48:17;;;;;;;0.20;0.10;;;;;;;4.05;100.00;98504.38;4995460;28;20827;-53
2020/12/30 02:50:43;;;;;;;0.20;0.10;;;;;;;4.10;100.00;98500.69;4995372;28;20454;-53
2020/12/30 02:53:10;;;;;;;0.20;0.10;;;;;;;4.09;100.00;98508.63;4994466;28;20453;-53
2020/12/30 02:55:36;;;;;;;0.20;0.20;;;;;;;4.18;100.00;98507.50;4995258;28;20453;-53
2020/12/30 02:58:02;;;;;;;0.20;0.10;;;;;;;4.21;100.00;98505.63;4995233;28;20500;-53
2020/12/30 03:00:28;;;;;;;0.20;0.10;;;;;;;4.28;100.00;98512.41;4995136;28;20507;-53
2020/12/30 03:02:54;;;;;;;0.20;0.10;;;;;;;4.32;100.00;98511.41;4995365;28;20512;-54
2020/12/30 03:05:20;;;;;;;0.20;0.10;;;;;;;4.40;100.00;98514.66;4993790;28;20855;-53
2020/12/30 03:07:48;;;;;;;0.20;0.20;;;;;;;4.41;100.00;98516.38;4995139;28;20484;-53
2020/12/30 03:10:14;;;;;;;0.73;0.73;;;;;;;4.50;100.00;98524.84;4995267;28;20457;-54
2020/12/30 03:12:40;;;;;;;0.20;0.10;;;;;;;4.59;100.00;98525.44;4994986;28;20504;-53
2020/12/30 03:15:06;;;;;;;0.20;0.10;;;;;;;4.57;100.00;98529.88;4995081;28;20460;-53
2020/12/30 03:17:33;;;;;;;0.20;0.20;;;;;;;4.62;100.00;98530.59;4994699;28;20477;-53
2020/12/30 03:19:59;;;;;;;0.20;0.20;;;;;;;4.65;100.00;98532.25;4995015;28;20793;-54
2020/12/30 03:22:25;;;;;;;0.20;0.10;;;;;;;4.65;100.00;98524.34;5002450;28;20856;-54
2020/12/30 03:24:51;;;;;;;0.20;0.10;;;;;;;4.68;100.00;98534.81;4990700;28;20857;-54
2020/12/30 03:27:17;;;;;;;0.20;0.10;;;;;;;4.72;100.00;98525.88;4994249;28;21048;-54
2020/12/30 03:29:43;;;;;;;0.20;0.10;;;;;;;4.78;100.00;98527.44;4994659;28;20868;-53
2020/12/30 03:32:10;;;;;;;0.20;0.20;;;;;;;4.74;100.00;98531.94;4994616;28;20446;-53
2020/12/30 03:34:36;;;;;;;0.20;0.20;;;;;;;4.78;100.00;98535.34;4994451;28;20532;-53
2020/12/30 03:37:03;;;;;;;0.20;0.10;;;;;;;4.61;100.00;98534.13;4994248;28;20481;-53
2020/12/30 03:39:29;;;;;;;0.20;0.13;;;;;;;4.61;100.00;98530.63;4994686;28;20457;-53
2020/12/30 03:41:56;;;;;;;0.20;0.10;;;;;;;4.70;100.00;98540.88;4981380;28;20461;-53
2020/12/30 03:44:22;;;;;;;0.20;0.20;;;;;;;4.65;100.00;98541.00;4994318;28;20461;-53
2020/12/30 03:46:48;;;;;;;0.20;0.10;;;;;;;4.60;100.00;98548.19;4994193;28;21003;-53
2020/12/30 03:49:14;;;;;;;0.20;0.10;;;;;;;4.49;100.00;98545.03;4994426;28;20501;-53
2020/12/30 03:51:41;;;;;;;0.20;0.10;;;;;;;4.40;100.00;98550.63;4994487;28;20527;-54
2020/12/30 03:54:07;;;;;;;0.20;0.10;;;;;;;4.29;100.00;98552.72;4994447;28;20446;-53
2020/12/30 03:56:34;;;;;;;0.20;0.10;;;;;;;4.26;100.00;98555.47;4994377;28;20506;-53
2020/12/30 03:59:00;;;;;;;0.20;0.10;;;;;;;4.24;100.00;98552.00;4994105;28;20453;-53
2020/12/30 04:01:27;;;;;;;0.20;0.10;;;;;;;4.28;100.00;98553.63;4981146;28;20453;-53
2020/12/30 04:03:53;;;;;;;0.20;0.10;;;;;;;4.28;100.00;98549.22;4992542;28;20485;-54
2020/12/30 04:06:19;;;;;;;0.20;0.20;;;;;;;4.27;100.00;98551.91;4992621;28;21108;-53
2020/12/30 04:08:46;;;;;;;0.20;0.10;;;;;;;4.20;100.00;98551.22;5007178;28;20566;-53
2020/12/30 04:11:12;;;;;;;0.20;0.10;;;;;;;4.24;100.00;98562.50;4993581;28;20460;-53
2020/12/30 04:13:38;;;;;;;0.30;0.20;;;;;;;4.18;100.00;98562.72;4993729;28;20449;-53
2020/12/30 04:16:04;;;;;;;0.20;0.13;;;;;;;4.13;100.00;98566.34;4992376;28;20457;-53
2020/12/30 04:18:31;;;;;;;0.20;0.10;;;;;;;4.23;100.00;98566.91;4993843;28;20456;-53
2020/12/30 04:20:57;;;;;;;0.20;0.20;;;;;;;4.15;100.00;98572.41;5001721;28;20452;-53
2020/12/30 04:23:23;;;;;;;0.20;0.10;;;;;;;4.18;100.00;98575.84;4998427;28;20489;-53
2020/12/30 04:25:49;;;;;;;0.20;0.10;;;;;;;4.14;100.00;98580.34;4993559;28;20469;-53
2020/12/30 04:28:16;;;;;;;0.20;0.10;;;;;;;4.14;100.00;98580.34;4993670;28;20450;-54
2020/12/30 04:30:42;;;;;;;0.20;0.10;;;;;;;4.15;100.00;98582.06;4993558;28;20449;-53
2020/12/30 04:33:11;;;;;;;0.20;0.20;;;;;;;4.08;100.00;98589.25;4993768;28;20442;-53
2020/12/30 04:35:37;;;;;;;0.20;0.10;;;;;;;4.04;100.00;98577.13;4993500;28;20453;-53
2020/12/30 04:38:04;;;;;;;0.20;0.10;;;;;;;4.03;100.00;98578.03;4991987;28;20998;-53
2020/12/30 04:40:31;;;;;;;0.20;0.10;;;;;;;4.06;100.00;98582.34;4993018;28;20457;-53
2020/12/30 04:43:04;;;;;;;3.63;3.40;;;;;;;4.08;100.00;98580.53;4993395;28;20544;-54
2020/12/30 04:45:32;;;;;;;0.20;0.10;;;;;;;4.03;100.00;98583.28;4993430;28;20460;-53
2020/12/30 04:48:00;;;;;;;0.20;0.10;;;;;;;4.00;100.00;98574.66;4993348;28;20484;-54
2020/12/30 04:50:27;;;;;;;0.20;0.20;;;;;;;3.99;100.00;98575.56;4993470;28;20449;-53
2020/12/30 04:52:54;;;;;;;0.20;0.10;;;;;;;4.05;100.00;98581.47;4993222;28;20449;-53
2020/12/30 04:55:23;;;;;;;0.20;0.13;;;;;;;4.09;100.00;98587.50;4993091;28;20461;-53
2020/12/30 04:58:09;;;;;;;0.20;0.10;;;;;;;4.06;100.00;98587.59;4992862;28;20481;-53
2020/12/30 05:00:38;;;;;;;0.20;0.10;;;;;;;4.04;100.00;98587.66;4993331;28;20441;-53
2020/12/30 05:03:10;;;;;;;0.20;0.10;;;;;;;4.10;100.00;98590.06;4991940;28;20597;-53
2020/12/30 05:05:37;;;;;;;0.20;0.10;;;;;;;4.08;100.00;98585.78;4993183;28;20482;-54
2020/12/30 05:08:14;;;;;;;0.20;0.10;;;;;;;4.18;100.00;98604.78;4992751;28;20545;-53
2020/12/30 05:10:42;;;;;;;0.20;0.10;;;;;;;4.20;100.00;98600.31;4992948;28;20465;-53
2020/12/30 05:13:08;;;;;;;0.20;0.13;;;;;;;4.04;100.00;98595.53;4993156;28;20815;-54
2020/12/30 05:15:35;;;;;;;0.20;0.10;;;;;;;4.08;100.00;98597.16;4992987;28;20457;-54
2020/12/30 05:18:04;;;;;;;0.20;0.10;;;;;;;4.09;100.00;98593.63;4996116;28;20477;-53
2020/12/30 05:20:35;;;;;;;0.20;0.10;;;;;;;4.18;100.00;98604.78;5001334;28;20866;-53
2020/12/30 05:23:08;;;;;;;0.20;0.10;;;;;;;4.15;100.00;98605.72;5004741;28;20492;-54
2020/12/30 05:25:40;;;;;;;0.33;0.30;;;;;;;4.15;100.00;98616.25;4996857;28;20461;-54
2020/12/30 05:28:11;;;;;;;0.20;0.10;;;;;;;4.15;100.00;98614.47;4996657;28;20520;-54
2020/12/30 05:30:39;;;;;;;0.20;0.13;;;;;;;4.14;100.00;98617.16;4996904;28;20933;-54
2020/12/30 05:33:05;;;;;;;0.20;0.10;;;;;;;4.22;100.00;98612.50;4996947;28;20455;-54
2020/12/30 05:35:33;;;;;;;0.20;0.10;;;;;;;4.10;100.00;98615.50;4997727;28;20890;-53
2020/12/30 05:38:01;;;;;;;0.20;0.10;;;;;;;4.16;100.00;98621.47;4996726;28;20478;-54
2020/12/30 05:40:29;;;;;;;0.20;0.20;;;;;;;4.21;100.00;98621.31;4996650;28;20461;-54
2020/12/30 05:43:10;;;;;;;0.20;0.10;;;;;;;4.26;100.00;98623.81;4996544;28;21029;-54
2020/12/30 05:45:50;;;;;;;0.20;0.10;;;;;;;4.19;100.00;98631.03;4996629;28;20540;-54
2020/12/30 05:48:21;;;;;;;0.20;0.10;;;;;;;4.18;100.00;98629.31;4996877;28;20820;-54
2020/12/30 05:50:47;;;;;;;0.20;0.10;;;;;;;4.17;100.00;98638.09;4996499;28;20452;-54
2020/12/30 05:53:14;;;;;;;0.20;0.10;;;;;;;4.10;100.00;98624.25;4985180;28;20446;-54
2020/12/30 05:55:40;;;;;;;0.57;0.57;;;;;;;4.26;100.00;98637.84;4996090;28;20453;-54
2020/12/30 05:58:12;;;;;;;0.20;0.10;;;;;;;4.28;100.00;98637.78;4983676;28;20531;-54
2020/12/30 06:00:41;;;;;;;0.20;0.20;;;;;;;4.23;100.00;98642.31;4995826;28;20950;-54
2020/12/30 06:03:07;;;;;;;0.20;0.10;;;;;;;4.18;100.00;98641.59;4996476;28;20862;-54
2020/12/30 06:05:34;;;;;;;0.20;0.10;;;;;;;4.20;100.00;98638.00;4996217;28;20544;-54
2020/12/30 06:08:00;;;;;;;0.20;0.10;;;;;;;4.20;100.00;98648.53;4996265;28;20473;-54
2020/12/30 06:10:28;;;;;;;0.20;0.13;;;;;;;4.18;100.00;98647.72;4996035;28;20468;-54
2020/12/30 06:12:55;;;;;;;0.20;0.10;;;;;;;4.22;100.00;98651.97;4996066;28;20449;-54
2020/12/30 06:15:23;;;;;;;0.20;0.10;;;;;;;4.20;100.00;98652.91;4995964;28;20958;-54
2020/12/30 06:17:57;;;;;;;0.20;0.20;;;;;;;4.22;100.00;98654.59;4995992;28;20489;-54
2020/12/30 06:20:24;;;;;;;0.20;0.20;;;;;;;4.18;100.00;98662.63;4999381;28;20917;-54
2020/12/30 06:22:55;;;;;;;0.20;0.10;;;;;;;4.21;100.00;98660.75;5005179;28;20500;-54
2020/12/30 06:25:23;;;;;;;0.20;0.10;;;;;;;4.21;100.00;98668.66;4995336;28;20516;-54
2020/12/30 06:27:50;;;;;;;0.20;0.20;;;;;;;4.10;100.00;98675.97;4995362;28;20477;-54
2020/12/30 06:30:17;;;;;;;0.20;0.10;;;;;;;4.14;100.00;98670.59;4995450;28;20454;-54
2020/12/30 06:32:43;;;;;;;0.20;0.10;;;;;;;4.21;100.00;98676.53;4994548;28;20449;-54
2020/12/30 06:35:10;;;;;;;0.20;0.10;;;;;;;4.15;100.00;98676.72;4995801;28;20461;-54
2020/12/30 06:37:38;;;;;;;0.37;0.33;;;;;;;4.19;100.00;98673.09;4995639;28;20465;-54
2020/12/30 06:40:31;;;;;;;0.20;0.20;;;;;;;4.16;100.00;98681.06;4995487;28;20454;-54
2020/12/30 06:43:00;;;;;;;0.20;0.10;;;;;;;4.14;100.00;98685.53;4995362;28;21810;-54
2020/12/30 06:45:44;;;;;;;0.20;0.10;;;;;;;4.07;100.00;98689.22;4995574;28;20453;-54
2020/12/30 06:48:11;;;;;;;0.20;0.10;;;;;;;4.04;100.00;98695.44;4993897;28;20481;-54
2020/12/30 06:50:39;;;;;;;0.20;0.20;;;;;;;4.11;100.00;98691.72;4995296;28;20533;-54
2020/12/30 06:53:34;;;;;;;0.20;0.20;;;;;;;4.06;100.00;98690.97;4994941;28;20445;-54
2020/12/30 06:56:02;;;;;;;0.20;0.10;;;;;;;4.16;100.00;98691.59;4962738;28;20460;-54
2020/12/30 06:58:50;;;;;;;0.20;0.10;;;;;;;4.16;100.00;98700.34;4995410;28;20446;-54
2020/12/30 07:01:19;;;;;;;0.20;0.10;;;;;;;4.10;100.00;98700.50;4995293;28;20997;-54
2020/12/30 07:03:47;;;;;;;0.20;0.10;;;;;;;4.14;100.00;98706.56;4995284;28;20501;-54
2020/12/30 07:06:27;;;;;;;0.20;0.10;;;;;;;4.17;100.00;98709.09;4995090;28;20500;-54
2020/12/30 07:08:56;;;;;;;0.20;0.10;;;;;;;4.10;100.00;98708.38;4994981;28;20515;-53
2020/12/30 07:11:38;;;;;;;0.20;0.10;;;;;;;3.95;100.00;98710.59;4995189;28;20867;-54
2020/12/30 07:14:09;;;;;;;0.20;0.10;;;;;;;4.01;100.00;98713.91;4995216;28;20457;-54
2020/12/30 07:16:37;;;;;;;0.20;0.10;;;;;;;3.93;100.00;98718.50;5002734;23;20838;-78
2020/12/30 07:19:34;;;;;;;0.20;0.10;;;;;;;3.98;100.00;98726.28;4992759;28;20468;-78
2020/12/30 07:22:03;;;;;;;0.20;0.10;;;;;;;4.00;100.00;98740.25;4991352;28;20450;-77
2020/12/30 07:24:36;;;;;;;0.20;0.10;;;;;;;3.85;100.00;98737.13;4998140;28;20493;-77
2020/12/30 07:27:07;;;;;;;0.20;0.10;;;;;;;3.88;100.00;98722.19;4998730;28;20468;-79
2020/12/30 07:29:33;;;;;;;0.20;0.10;;;;;;;3.80;100.00;98733.75;4998612;28;20454;-79
2020/12/30 07:32:02;;;;;;;0.20;0.10;;;;;;;3.67;100.00;98742.00;4985648;28;20500;-78
2020/12/30 07:34:31;;;;;;;0.20;0.20;;;;;;;3.79;100.00;98747.78;5000271;28;20529;-79
2020/12/30 07:36:57;;;;;;;0.20;0.10;;;;;;;3.70;100.00;98744.53;5004814;23;20596;-53
2020/12/30 07:39:28;;;;;;;0.20;0.10;;;;;;;3.75;100.00;98759.28;4988855;28;20861;-52
2020/12/30 07:41:54;;;;;;;0.20;0.10;;;;;;;3.66;100.00;98758.66;4982034;28;20450;-53
2020/12/30 07:44:23;;;;;;;0.20;0.10;;;;;;;3.56;100.00;98765.91;4996073;28;20496;-52
2020/12/30 07:46:50;;;;;;;0.20;0.10;;;;;;;3.58;100.00;98771.13;4998788;28;20469;-52
2020/12/30 07:49:22;;;;;;;0.20;0.10;;;;;;;3.61;100.00;98773.69;4974688;28;20458;-52
2020/12/30 07:51:50;;;;;;;0.20;0.10;;;;;;;3.59;100.00;98784.22;4975694;28;20850;-51
2020/12/30 07:54:18;;;;;;;0.20;0.10;;;;;;;3.47;100.00;98789.78;4994088;28;20450;-52
2020/12/30 07:56:45;;;;;;;0.20;0.10;;;;;;;3.46;100.00;98791.53;4975209;28;20875;-52
2020/12/30 07:59:19;;;;;;;0.20;0.10;;;;;;;3.50;100.00;98797.59;4984293;28;20999;-52
2020/12/30 08:02:03;;;;;;;0.20;0.20;;;;;;;3.53;100.00;98805.38;4994458;28;20445;-52
2020/12/30 08:04:34;;;;;;;0.20;0.13;;;;;;;3.51;100.00;98804.56;4981839;28;20486;-52
2020/12/30 08:07:27;;;;;;;0.20;0.10;;;;;;;3.50;100.00;98816.81;4964158;28;20483;-52
2020/12/30 08:09:54;;;;;;;0.20;0.10;;;;;;;3.50;100.00;98824.72;4991743;28;20482;-52
2020/12/30 08:12:20;;;;;;;0.20;0.10;;;;;;;3.51;100.00;98825.56;4989169;28;20453;-52
2020/12/30 08:14:46;;;;;;;0.20;0.10;;;;;;;3.42;100.00;98824.00;4999522;28;20929;-52
2020/12/30 08:17:14;;;;;;;0.20;0.20;;;;;;;3.37;100.00;98825.91;4990277;28;20998;-52
2020/12/30 08:19:44;;;;;;;0.20;0.10;;;;;;;3.27;100.00;98829.63;4999665;28;20453;-52
2020/12/30 08:22:21;;;;;;;0.20;0.10;;;;;;;3.38;100.00;98832.00;4987649;28;20445;-52
2020/12/30 08:24:54;;;;;;;0.20;0.10;;;;;;;3.28;100.00;98832.22;4970334;28;20485;-52
2020/12/30 08:27:25;;;;;;;0.20;0.10;;;;;;;3.50;100.00;98842.22;4978476;28;20517;-53
2020/12/30 08:29:57;;;;;;;0.20;0.10;;;;;;;3.25;100.00;98845.41;4985193;28;20972;-52
2020/12/30 08:32:33;;;;;;;0.20;0.10;;;;;;;3.43;100.00;98844.16;4999750;28;20454;-53
2020/12/30 08:35:38;;;;;;;0.20;0.10;;;;;;;3.56;100.00;98842.97;5001338;28;20524;-53
2020/12/30 08:38:17;;;;;;;0.20;0.10;;;;;;;3.50;100.00;98847.47;4984171;28;20999;-52
2020/12/30 08:40:49;;;;;;;0.20;0.20;;;;;;;3.66;100.00;98848.84;5004271;28;20449;-52
2020/12/30 08:43:20;;;;;;;0.20;0.10;;;;;;;3.43;100.00;98851.16;4992767;28;21002;-52
2020/12/30 08:45:49;;;;;;;0.50;0.50;;;;;;;3.61;100.00;98849.88;4976879;28;20453;-52
2020/12/30 08:48:18;;;;;;;0.20;0.10;;;;;;;3.84;100.00;98855.44;4992727;28;20477;-52
2020/12/30 08:50:46;;;;;;;0.20;0.10;;;;;;;3.89;100.00;98864.06;4976914;28;20458;-52
2020/12/30 08:53:13;;;;;;;0.20;0.10;;;;;;;4.09;100.00;98864.41;4972112;28;20528;-52
2020/12/30 08:55:40;;;;;;;0.20;0.10;;;;;;;4.04;100.00;98868.06;4982337;28;20455;-52
2020/12/30 08:58:06;;;;;;;0.20;0.20;;;;;;;4.23;100.00;98877.19;4993710;28;20496;-52
2020/12/30 09:00:35;;;;;;;0.20;0.10;;;;;;;4.31;100.00;98877.00;4977932;28;20454;-53
2020/12/30 09:03:15;;;;;;;0.20;0.10;;;;;;;4.21;100.00;98881.66;4980762;28;20493;-52
2020/12/30 09:05:50;;;;;;;0.20;0.20;;;;;;;4.22;100.00;98880.75;4993080;28;20458;-52
2020/12/30 09:08:18;;;;;;;0.20;0.10;;;;;;;4.29;100.00;98877.06;4993579;28;20977;-52
2020/12/30 09:10:47;;;;;;;0.20;0.10;;;;;;;4.47;100.00;98889.72;4988411;28;20512;-52
2020/12/30 09:13:14;;;;;;;0.20;0.10;;;;;;;4.61;100.00;98888.50;4975816;28;20449;-52
2020/12/30 09:15:42;;;;;;;0.20;0.10;;;;;;;4.78;100.00;98890.66;4988278;28;20842;-52
2020/12/30 09:18:10;;;;;;;0.20;0.10;;;;;;;4.82;100.00;98884.41;4992940;28;20480;-52
2020/12/30 09:20:36;;;;;;;0.20;0.10;;;;;;;4.92;100.00;98889.34;4976057;28;20455;-52
2020/12/30 09:23:03;;;;;;;0.20;0.10;;;;;;;4.95;100.00;98894.56;4970985;28;20489;-52
2020/12/30 09:25:31;;;;;;;0.20;0.10;;;;;;;4.99;100.00;98898.81;4981111;28;20462;-52
2020/12/30 09:27:59;;;;;;;0.20;0.10;;;;;;;5.13;100.00;98908.09;4968143;28;20529;-53
2020/12/30 09:30:27;;;;;;;0.20;0.10;;;;;;;5.19;100.00;98910.53;4992567;28;20825;-52
2020/12/30 09:32:55;;;;;;;0.20;0.10;;;;;;;5.22;100.00;98911.34;4973959;28;20461;-53
2020/12/30 09:35:29;;;;;;;1.07;1.07;;;;;;;5.27;100.00;98916.44;4979870;28;20457;-52
2020/12/30 09:37:59;;;;;;;0.20;0.10;;;;;;;5.36;100.00;98921.47;4990978;28;20488;-53
2020/12/30 09:40:28;;;;;;;0.20;0.10;;;;;;;5.44;100.00;98922.06;4964521;28;20973;-54
2020/12/30 09:43:11;;;;;;;0.20;0.10;;;;;;;5.41;100.00;98926.59;4977823;28;20513;-52
2020/12/30 09:45:38;;;;;;;0.20;0.20;;;;;;;5.46;100.00;98930.81;4982209;28;20458;-52
2020/12/30 09:48:12;;;;;;;0.20;0.10;;;;;;;5.50;100.00;98929.81;4990715;28;20473;-52
2020/12/30 09:50:38;;;;;;;0.20;0.20;;;;;;;5.51;100.00;98936.81;4971848;28;20463;-52
2020/12/30 09:53:04;;;;;;;0.20;0.10;;;;;;;5.79;100.00;98930.69;4978623;28;20441;-52
2020/12/30 09:55:31;;;;;;;0.20;0.20;;;;;;;5.71;100.00;98932.69;4992374;28;20445;-52
2020/12/30 09:57:57;;;;;;;0.20;0.13;;;;;;;5.69;100.00;98938.03;4994093;28;20966;-52
2020/12/30 10:00:24;;;;;;;0.20;0.17;;;;;;;5.76;100.00;98941.34;4992752;28;20453;-52
2020/12/30 10:02:50;;;;;;;0.20;0.10;;;;;;;5.72;100.00;98937.06;4993515;28;20916;-52
2020/12/30 10:05:16;;;;;;;0.20;0.10;;;;;;;5.77;100.00;98935.16;4979198;28;20499;-52
2020/12/30 10:07:43;;;;;;;0.20;0.20;;;;;;;5.82;100.00;98936.72;4982481;28;20528;-52
2020/12/30 10:10:09;;;;;;;0.20;0.10;;;;;;;6.03;100.00;98940.50;4982887;28;20492;-52
2020/12/30 10:12:38;;;;;;;0.20;0.10;;;;;;;5.96;100.00;98938.97;4988004;28;20458;-52
2020/12/30 10:15:08;;;;;;;0.20;0.20;;;;;;;5.88;100.00;98946.22;4994936;28;20947;-53
2020/12/30 10:17:35;;;;;;;0.20;0.20;;;;;;;5.94;100.00;98940.78;4976682;28;20489;-53
2020/12/30 10:20:06;;;;;;;0.20;0.10;;;;;;;6.05;100.00;98948.38;4971121;28;20468;-53
2020/12/30 10:22:32;;;;;;;0.20;0.10;;;;;;;5.94;100.00;98949.56;4971881;28;20461;-52
2020/12/30 10:25:04;;;;;;;0.20;0.10;;;;;;;5.95;100.00;98945.16;4985697;28;20453;-53
2020/12/30 10:27:31;;;;;;;0.20;0.10;;;;;;;5.94;100.00;98943.44;4989682;28;20479;-53
2020/12/30 10:29:57;;;;;;;0.20;0.10;;;;;;;5.90;100.00;98950.59;4997466;28;20989;-53
2020/12/30 10:32:23;;;;;;;0.20;0.20;;;;;;;5.93;100.00;98947.84;4996750;28;20454;-53
2020/12/30 10:34:49;;;;;;;0.20;0.17;;;;;;;6.02;100.00;98951.94;4996366;28;20449;-53
2020/12/30 10:37:17;;;;;;;0.20;0.10;;;;;;;5.94;100.00;98952.22;4972431;28;20509;-54
2020/12/30 10:39:45;;;;;;;0.20;0.10;;;;;;;6.00;100.00;98951.13;4975563;28;20524;-53
2020/12/30 10:42:11;;;;;;;0.20;0.10;;;;;;;5.95;100.00;98955.69;4978529;28;20986;-53
2020/12/30 10:44:37;;;;;;;0.20;0.10;;;;;;;5.99;100.00;98949.41;4990947;28;21017;-55
2020/12/30 10:47:04;;;;;;;0.20;0.13;;;;;;;5.93;100.00;98949.63;4976627;28;20836;-54
2020/12/30 10:49:30;;;;;;;0.20;0.10;;;;;;;5.98;100.00;98946.81;4993475;28;20477;-54
2020/12/30 10:51:56;;;;;;;0.20;0.20;;;;;;;5.94;100.00;98951.34;4994294;28;20472;-54
2020/12/30 10:54:22;;;;;;;0.20;0.20;;;;;;;5.89;100.00;98954.09;4976295;28;20457;-54
2020/12/30 10:56:53;;;;;;;0.20;0.10;;;;;;;5.99;100.00;98952.06;4995726;28;20832;-54
2020/12/30 10:59:21;;;;;;;0.20;0.20;;;;;;;5.83;100.00;98956.91;4993388;28;20458;-52
2020/12/30 11:01:54;;;;;;;0.20;0.10;;;;;;;5.93;100.00;98955.75;4997573;28;20460;-54
2020/12/30 11:04:21;;;;;;;0.20;0.20;;;;;;;5.93;100.00;98950.47;4995460;28;20545;-54
2020/12/30 11:06:47;;;;;;;0.20;0.10;;;;;;;5.86;100.00;98946.25;4997875;28;20496;-54
2020/12/30 11:09:14;;;;;;;0.20;0.20;;;;;;;5.96;100.00;98957.44;4995303;28;20810;-54
2020/12/30 11:11:40;;;;;;;0.20;0.10;;;;;;;5.90;100.00;98952.34;4996725;28;20520;-54
2020/12/30 11:14:07;;;;;;;0.30;0.10;;;;;;;5.81;100.00;98952.59;4995563;28;20817;-54
2020/12/30 11:16:34;;;;;;;0.20;0.20;;;;;;;5.74;100.00;98949.28;4977335;28;20493;-54
2020/12/30 11:19:00;;;;;;;0.20;0.20;;;;;;;5.76;100.00;98951.88;4993560;28;20520;-54
2020/12/30 11:21:26;;;;;;;0.20;0.10;;;;;;;5.77;100.00;98953.63;4979303;28;20450;-54
2020/12/30 11:23:52;;;;;;;0.20;0.13;;;;;;;5.76;100.00;98944.84;4984203;28;21323;-54
2020/12/30 11:26:18;;;;;;;0.20;0.20;;;;;;;5.78;100.00;98958.84;4989700;28;20469;-54
2020/12/30 11:28:44;;;;;;;0.20;0.20;;;;;;;5.75;100.00;98951.00;4994476;28;20460;-54
2020/12/30 11:31:13;;;;;;;0.20;0.20;;;;;;;5.62;100.00;98955.81;4995910;28;20458;-54
2020/12/30 11:33:40;;;;;;;0.20;0.10;;;;;;;5.61;100.00;98954.06;4994011;28;20473;-54
2020/12/30 11:36:06;;;;;;;0.20;0.10;;;;;;;5.76;100.00;98951.88;4989676;28;20469;-54
2020/12/30 11:38:32;;;;;;;0.20;0.10;;;;;;;5.72;100.00;98953.72;4996059;28;20839;-54
2020/12/30 11:40:59;;;;;;;0.20;0.10;;;;;;;5.70;100.00;98952.94;4990323;28;20524;-53